sensor_id;sensor_type;location;lat;lon;timestamp;P1;durP1;ratioP1;P2;durP2;ratioP2
7475;SDS011;3779;49.216;8.650;2022-08-19T00:00:25;13.23;;;11.93;;
7475;SDS011;3779;49.216;8.650;2022-08-19T00:03:18;12.35;;;11.25;;
7475;SDS011;3779;49.216;8.650;2022-08-19T00:06:07;12.93;;;11.52;;
7475;SDS011;3779;49.216;8.650;2022-08-19T00:09:00;13.30;;;11.95;;
7475;SDS011;3779;49.216;8.650;2022-08-19T00:11:48;13.18;;;11.88;;
7475;SDS011;3779;49.216;8.650;2022-08-19T00:14:48;14.10;;;12.80;;
7475;SDS011;3779;49.216;8.650;2022-08-19T00:17:42;13.13;;;11.82;;
7475;SDS011;3779;49.216;8.650;2022-08-19T00:20:32;13.15;;;11.85;;
7475;SDS011;3779;49.216;8.650;2022-08-19T00:23:20;13.25;;;11.95;;
7475;SDS011;3779;49.216;8.650;2022-08-19T00:26:10;13.68;;;12.38;;
7475;SDS011;3779;49.216;8.650;2022-08-19T00:29:11;13.48;;;12.15;;
7475;SDS011;3779;49.216;8.650;2022-08-19T00:32:07;12.95;;;11.68;;
7475;SDS011;3779;49.216;8.650;2022-08-19T00:34:59;13.27;;;11.95;;
7475;SDS011;3779;49.216;8.650;2022-08-19T00:37:54;14.05;;;12.73;;
7475;SDS011;3779;49.216;8.650;2022-08-19T00:40:50;13.90;;;12.50;;
7475;SDS011;3779;49.216;8.650;2022-08-19T00:43:36;13.43;;;11.77;;
7475;SDS011;3779;49.216;8.650;2022-08-19T00:46:24;13.55;;;12.25;;
7475;SDS011;3779;49.216;8.650;2022-08-19T00:49:13;12.65;;;11.45;;
7475;SDS011;3779;49.216;8.650;2022-08-19T00:52:11;12.98;;;11.73;;
7475;SDS011;3779;49.216;8.650;2022-08-19T00:55:15;13.02;;;11.75;;
7475;SDS011;3779;49.216;8.650;2022-08-19T00:58:09;12.43;;;11.25;;
7475;SDS011;3779;49.216;8.650;2022-08-19T01:01:01;15.23;;;12.05;;
7475;SDS011;3779;49.216;8.650;2022-08-19T01:03:53;14.68;;;13.07;;
7475;SDS011;3779;49.216;8.650;2022-08-19T01:06:43;15.25;;;13.63;;
7475;SDS011;3779;49.216;8.650;2022-08-19T01:09:31;14.15;;;12.75;;
7475;SDS011;3779;49.216;8.650;2022-08-19T01:12:19;15.50;;;13.90;;
7475;SDS011;3779;49.216;8.650;2022-08-19T01:15:08;13.70;;;12.30;;
7475;SDS011;3779;49.216;8.650;2022-08-19T01:17:59;14.70;;;13.30;;
7475;SDS011;3779;49.216;8.650;2022-08-19T01:20:54;13.27;;;11.98;;
7475;SDS011;3779;49.216;8.650;2022-08-19T01:23:47;14.65;;;13.25;;
7475;SDS011;3779;49.216;8.650;2022-08-19T01:26:40;14.45;;;13.15;;
7475;SDS011;3779;49.216;8.650;2022-08-19T01:29:32;14.32;;;13.05;;
7475;SDS011;3779;49.216;8.650;2022-08-19T01:32:21;14.15;;;12.88;;
7475;SDS011;3779;49.216;8.650;2022-08-19T01:35:12;13.60;;;12.30;;
7475;SDS011;3779;49.216;8.650;2022-08-19T01:38:06;14.68;;;13.35;;
7475;SDS011;3779;49.216;8.650;2022-08-19T01:40:55;14.23;;;12.90;;
7475;SDS011;3779;49.216;8.650;2022-08-19T01:43:45;15.00;;;13.70;;
7475;SDS011;3779;49.216;8.650;2022-08-19T01:46:32;14.60;;;12.38;;
7475;SDS011;3779;49.216;8.650;2022-08-19T01:49:25;14.32;;;12.80;;
7475;SDS011;3779;49.216;8.650;2022-08-19T01:52:12;14.77;;;13.38;;
7475;SDS011;3779;49.216;8.650;2022-08-19T01:55:06;15.52;;;13.95;;
7475;SDS011;3779;49.216;8.650;2022-08-19T01:57:58;13.73;;;12.52;;
7475;SDS011;3779;49.216;8.650;2022-08-19T02:00:48;16.27;;;13.15;;
7475;SDS011;3779;49.216;8.650;2022-08-19T02:03:38;15.57;;;14.05;;
7475;SDS011;3779;49.216;8.650;2022-08-19T02:06:26;14.05;;;12.85;;
7475;SDS011;3779;49.216;8.650;2022-08-19T02:09:13;15.15;;;13.65;;
7475;SDS011;3779;49.216;8.650;2022-08-19T02:12:02;14.70;;;13.30;;
7475;SDS011;3779;49.216;8.650;2022-08-19T02:14:52;14.38;;;13.18;;
7475;SDS011;3779;49.216;8.650;2022-08-19T02:17:41;14.90;;;13.43;;
7475;SDS011;3779;49.216;8.650;2022-08-19T02:20:28;15.73;;;14.07;;
7475;SDS011;3779;49.216;8.650;2022-08-19T02:23:15;15.05;;;13.75;;
7475;SDS011;3779;49.216;8.650;2022-08-19T02:26:03;14.88;;;13.48;;
7475;SDS011;3779;49.216;8.650;2022-08-19T02:28:50;14.95;;;13.65;;
7475;SDS011;3779;49.216;8.650;2022-08-19T02:31:38;14.80;;;13.50;;
7475;SDS011;3779;49.216;8.650;2022-08-19T02:34:26;15.85;;;14.35;;
7475;SDS011;3779;49.216;8.650;2022-08-19T02:37:13;14.50;;;13.20;;
7475;SDS011;3779;49.216;8.650;2022-08-19T02:40:21;15.35;;;14.02;;
7475;SDS011;3779;49.216;8.650;2022-08-19T02:43:10;16.02;;;14.57;;
7475;SDS011;3779;49.216;8.650;2022-08-19T02:45:59;14.77;;;13.52;;
7475;SDS011;3779;49.216;8.650;2022-08-19T02:48:51;16.00;;;14.35;;
7475;SDS011;3779;49.216;8.650;2022-08-19T02:51:40;15.15;;;13.63;;
7475;SDS011;3779;49.216;8.650;2022-08-19T02:54:32;16.17;;;14.57;;
7475;SDS011;3779;49.216;8.650;2022-08-19T02:57:19;16.25;;;14.85;;
7475;SDS011;3779;49.216;8.650;2022-08-19T03:00:07;15.90;;;14.48;;
7475;SDS011;3779;49.216;8.650;2022-08-19T03:03:00;15.73;;;14.25;;
7475;SDS011;3779;49.216;8.650;2022-08-19T03:05:50;16.17;;;14.68;;
7475;SDS011;3779;49.216;8.650;2022-08-19T03:08:38;16.10;;;14.68;;
7475;SDS011;3779;49.216;8.650;2022-08-19T03:11:29;16.60;;;14.98;;
7475;SDS011;3779;49.216;8.650;2022-08-19T03:14:18;16.08;;;14.57;;
7475;SDS011;3779;49.216;8.650;2022-08-19T03:17:05;16.60;;;15.20;;
7475;SDS011;3779;49.216;8.650;2022-08-19T03:19:55;16.50;;;14.90;;
7475;SDS011;3779;49.216;8.650;2022-08-19T03:22:42;15.88;;;14.57;;
7475;SDS011;3779;49.216;8.650;2022-08-19T03:25:29;14.73;;;13.55;;
7475;SDS011;3779;49.216;8.650;2022-08-19T03:28:21;15.30;;;13.70;;
7475;SDS011;3779;49.216;8.650;2022-08-19T03:31:10;15.00;;;13.57;;
7475;SDS011;3779;49.216;8.650;2022-08-19T03:33:59;14.93;;;13.70;;
7475;SDS011;3779;49.216;8.650;2022-08-19T03:36:46;15.32;;;13.98;;
7475;SDS011;3779;49.216;8.650;2022-08-19T03:39:36;14.60;;;13.20;;
7475;SDS011;3779;49.216;8.650;2022-08-19T03:42:23;15.02;;;13.82;;
7475;SDS011;3779;49.216;8.650;2022-08-19T03:45:13;15.50;;;14.10;;
7475;SDS011;3779;49.216;8.650;2022-08-19T03:47:59;15.15;;;13.82;;
7475;SDS011;3779;49.216;8.650;2022-08-19T03:50:45;15.70;;;14.40;;
7475;SDS011;3779;49.216;8.650;2022-08-19T03:53:33;15.43;;;13.95;;
7475;SDS011;3779;49.216;8.650;2022-08-19T03:56:21;17.13;;;15.63;;
7475;SDS011;3779;49.216;8.650;2022-08-19T03:59:12;15.55;;;14.15;;
7475;SDS011;3779;49.216;8.650;2022-08-19T04:02:05;15.80;;;14.35;;
7475;SDS011;3779;49.216;8.650;2022-08-19T04:04:57;15.43;;;13.95;;
7475;SDS011;3779;49.216;8.650;2022-08-19T04:07:43;16.33;;;14.93;;
7475;SDS011;3779;49.216;8.650;2022-08-19T04:10:36;17.13;;;15.73;;
7475;SDS011;3779;49.216;8.650;2022-08-19T04:13:23;16.27;;;14.70;;
7475;SDS011;3779;49.216;8.650;2022-08-19T04:16:11;16.60;;;15.10;;
7475;SDS011;3779;49.216;8.650;2022-08-19T04:19:01;16.75;;;15.15;;
7475;SDS011;3779;49.216;8.650;2022-08-19T04:21:49;17.00;;;15.50;;
7475;SDS011;3779;49.216;8.650;2022-08-19T04:24:37;17.73;;;16.17;;
7475;SDS011;3779;49.216;8.650;2022-08-19T04:27:25;17.95;;;16.15;;
7475;SDS011;3779;49.216;8.650;2022-08-19T04:30:14;17.83;;;16.20;;
7475;SDS011;3779;49.216;8.650;2022-08-19T04:33:02;18.70;;;16.90;;
7475;SDS011;3779;49.216;8.650;2022-08-19T04:35:51;17.17;;;15.50;;
7475;SDS011;3779;49.216;8.650;2022-08-19T04:38:38;17.45;;;15.95;;
7475;SDS011;3779;49.216;8.650;2022-08-19T04:41:25;18.77;;;17.10;;
7475;SDS011;3779;49.216;8.650;2022-08-19T04:44:31;17.30;;;15.85;;
7475;SDS011;3779;49.216;8.650;2022-08-19T04:47:18;16.02;;;14.70;;
7475;SDS011;3779;49.216;8.650;2022-08-19T04:50:05;17.48;;;15.77;;
7475;SDS011;3779;49.216;8.650;2022-08-19T04:52:53;15.88;;;14.38;;
7475;SDS011;3779;49.216;8.650;2022-08-19T04:55:41;16.48;;;14.98;;
7475;SDS011;3779;49.216;8.650;2022-08-19T04:58:28;15.80;;;14.20;;
7475;SDS011;3779;49.216;8.650;2022-08-19T05:01:21;16.00;;;14.48;;
7475;SDS011;3779;49.216;8.650;2022-08-19T05:04:09;17.55;;;16.00;;
7475;SDS011;3779;49.216;8.650;2022-08-19T05:06:55;16.70;;;15.20;;
7475;SDS011;3779;49.216;8.650;2022-08-19T05:09:42;16.25;;;14.70;;
7475;SDS011;3779;49.216;8.650;2022-08-19T05:12:30;15.52;;;14.15;;
7475;SDS011;3779;49.216;8.650;2022-08-19T05:15:16;16.77;;;15.10;;
7475;SDS011;3779;49.216;8.650;2022-08-19T05:18:02;16.98;;;15.27;;
7475;SDS011;3779;49.216;8.650;2022-08-19T05:21:16;16.10;;;14.60;;
7475;SDS011;3779;49.216;8.650;2022-08-19T05:24:30;16.48;;;14.95;;
7475;SDS011;3779;49.216;8.650;2022-08-19T05:27:22;16.52;;;14.90;;
7475;SDS011;3779;49.216;8.650;2022-08-19T05:30:12;16.30;;;14.77;;
7475;SDS011;3779;49.216;8.650;2022-08-19T05:33:00;16.27;;;14.77;;
7475;SDS011;3779;49.216;8.650;2022-08-19T05:35:56;20.48;;;14.60;;
7475;SDS011;3779;49.216;8.650;2022-08-19T05:38:45;20.42;;;15.25;;
7475;SDS011;3779;49.216;8.650;2022-08-19T05:41:34;30.30;;;13.88;;
7475;SDS011;3779;49.216;8.650;2022-08-19T05:44:24;21.40;;;13.93;;
7475;SDS011;3779;49.216;8.650;2022-08-19T05:47:13;21.73;;;14.15;;
7475;SDS011;3779;49.216;8.650;2022-08-19T05:50:02;18.10;;;14.00;;
7475;SDS011;3779;49.216;8.650;2022-08-19T05:52:51;15.05;;;13.43;;
7475;SDS011;3779;49.216;8.650;2022-08-19T05:55:38;22.65;;;13.25;;
7475;SDS011;3779;49.216;8.650;2022-08-19T05:58:24;20.85;;;13.38;;
7475;SDS011;3779;49.216;8.650;2022-08-19T06:01:13;19.95;;;13.18;;
7475;SDS011;3779;49.216;8.650;2022-08-19T06:04:06;18.48;;;14.20;;
7475;SDS011;3779;49.216;8.650;2022-08-19T06:06:53;15.27;;;13.32;;
7475;SDS011;3779;49.216;8.650;2022-08-19T06:09:41;15.25;;;13.68;;
7475;SDS011;3779;49.216;8.650;2022-08-19T06:12:28;16.25;;;13.88;;
7475;SDS011;3779;49.216;8.650;2022-08-19T06:15:19;21.13;;;12.88;;
7475;SDS011;3779;49.216;8.650;2022-08-19T06:18:08;15.00;;;13.40;;
7475;SDS011;3779;49.216;8.650;2022-08-19T06:20:57;16.35;;;12.15;;
7475;SDS011;3779;49.216;8.650;2022-08-19T06:23:46;15.50;;;11.98;;
7475;SDS011;3779;49.216;8.650;2022-08-19T06:26:34;13.77;;;12.48;;
7475;SDS011;3779;49.216;8.650;2022-08-19T06:29:27;18.80;;;12.27;;
7475;SDS011;3779;49.216;8.650;2022-08-19T06:32:20;13.48;;;12.27;;
7475;SDS011;3779;49.216;8.650;2022-08-19T06:35:08;12.38;;;11.27;;
7475;SDS011;3779;49.216;8.650;2022-08-19T06:37:55;13.25;;;11.88;;
7475;SDS011;3779;49.216;8.650;2022-08-19T06:40:42;14.20;;;12.90;;
7475;SDS011;3779;49.216;8.650;2022-08-19T06:43:34;13.90;;;12.50;;
7475;SDS011;3779;49.216;8.650;2022-08-19T06:46:23;12.77;;;11.52;;
7475;SDS011;3779;49.216;8.650;2022-08-19T06:49:14;11.02;;;9.95;;
7475;SDS011;3779;49.216;8.650;2022-08-19T06:52:13;14.18;;;11.57;;
7475;SDS011;3779;49.216;8.650;2022-08-19T06:55:03;10.73;;;9.82;;
7475;SDS011;3779;49.216;8.650;2022-08-19T06:57:51;13.43;;;12.07;;
7475;SDS011;3779;49.216;8.650;2022-08-19T07:00:40;9.40;;;8.65;;
7475;SDS011;3779;49.216;8.650;2022-08-19T07:03:32;10.50;;;9.50;;
7475;SDS011;3779;49.216;8.650;2022-08-19T07:06:20;11.32;;;10.23;;
7475;SDS011;3779;49.216;8.650;2022-08-19T07:09:06;11.45;;;10.40;;
7475;SDS011;3779;49.216;8.650;2022-08-19T07:11:54;11.63;;;10.52;;
7475;SDS011;3779;49.216;8.650;2022-08-19T07:14:42;12.48;;;11.27;;
7475;SDS011;3779;49.216;8.650;2022-08-19T07:17:31;13.23;;;12.05;;
7475;SDS011;3779;49.216;8.650;2022-08-19T07:20:25;9.85;;;8.85;;
7475;SDS011;3779;49.216;8.650;2022-08-19T07:23:13;11.88;;;10.68;;
7475;SDS011;3779;49.216;8.650;2022-08-19T07:26:19;9.18;;;8.38;;
7475;SDS011;3779;49.216;8.650;2022-08-19T07:29:11;12.18;;;9.70;;
7475;SDS011;3779;49.216;8.650;2022-08-19T07:32:04;7.80;;;7.10;;
7475;SDS011;3779;49.216;8.650;2022-08-19T07:34:54;10.90;;;9.90;;
7475;SDS011;3779;49.216;8.650;2022-08-19T07:37:43;10.50;;;8.43;;
7475;SDS011;3779;49.216;8.650;2022-08-19T07:40:31;9.38;;;8.48;;
7475;SDS011;3779;49.216;8.650;2022-08-19T07:43:21;12.23;;;11.13;;
7475;SDS011;3779;49.216;8.650;2022-08-19T07:46:14;11.27;;;10.00;;
7475;SDS011;3779;49.216;8.650;2022-08-19T07:49:02;11.15;;;10.02;;
7475;SDS011;3779;49.216;8.650;2022-08-19T07:51:57;12.75;;;10.52;;
7475;SDS011;3779;49.216;8.650;2022-08-19T07:54:48;12.48;;;11.27;;
7475;SDS011;3779;49.216;8.650;2022-08-19T07:57:36;11.32;;;10.20;;
7475;SDS011;3779;49.216;8.650;2022-08-19T08:00:24;11.48;;;10.48;;
7475;SDS011;3779;49.216;8.650;2022-08-19T08:03:11;11.60;;;10.45;;
7475;SDS011;3779;49.216;8.650;2022-08-19T08:05:58;10.10;;;9.02;;
7475;SDS011;3779;49.216;8.650;2022-08-19T08:09:03;10.93;;;9.93;;
7475;SDS011;3779;49.216;8.650;2022-08-19T08:12:07;12.05;;;9.77;;
7475;SDS011;3779;49.216;8.650;2022-08-19T08:15:00;9.82;;;8.95;;
7475;SDS011;3779;49.216;8.650;2022-08-19T08:17:51;11.02;;;9.77;;
7475;SDS011;3779;49.216;8.650;2022-08-19T08:20:39;8.63;;;7.85;;
7475;SDS011;3779;49.216;8.650;2022-08-19T08:23:27;9.93;;;8.50;;
7475;SDS011;3779;49.216;8.650;2022-08-19T08:26:15;9.50;;;8.60;;
7475;SDS011;3779;49.216;8.650;2022-08-19T08:29:05;9.35;;;8.45;;
7475;SDS011;3779;49.216;8.650;2022-08-19T08:31:54;10.05;;;9.13;;
7475;SDS011;3779;49.216;8.650;2022-08-19T08:34:42;7.05;;;6.28;;
7475;SDS011;3779;49.216;8.650;2022-08-19T08:37:29;11.40;;;8.73;;
7475;SDS011;3779;49.216;8.650;2022-08-19T08:40:21;10.18;;;8.48;;
7475;SDS011;3779;49.216;8.650;2022-08-19T08:43:37;10.48;;;8.43;;
7475;SDS011;3779;49.216;8.650;2022-08-19T08:46:36;9.27;;;8.38;;
7475;SDS011;3779;49.216;8.650;2022-08-19T08:49:56;7.85;;;7.15;;
7475;SDS011;3779;49.216;8.650;2022-08-19T08:52:47;7.30;;;6.60;;
7475;SDS011;3779;49.216;8.650;2022-08-19T08:55:37;7.25;;;6.15;;
7475;SDS011;3779;49.216;8.650;2022-08-19T08:58:29;7.20;;;6.50;;
7475;SDS011;3779;49.216;8.650;2022-08-19T09:01:37;7.35;;;6.15;;
7475;SDS011;3779;49.216;8.650;2022-08-19T09:04:26;8.32;;;6.07;;
7475;SDS011;3779;49.216;8.650;2022-08-19T09:10:27;5.93;;;5.32;;
7475;SDS011;3779;49.216;8.650;2022-08-19T09:16:41;7.65;;;5.68;;
7475;SDS011;3779;49.216;8.650;2022-08-19T09:19:46;6.60;;;5.32;;
7475;SDS011;3779;49.216;8.650;2022-08-19T09:22:44;6.43;;;5.80;;
7475;SDS011;3779;49.216;8.650;2022-08-19T09:25:32;5.18;;;4.78;;
7475;SDS011;3779;49.216;8.650;2022-08-19T09:28:20;5.13;;;4.72;;
7475;SDS011;3779;49.216;8.650;2022-08-19T09:31:06;5.65;;;5.20;;
7475;SDS011;3779;49.216;8.650;2022-08-19T09:33:52;5.45;;;4.97;;
7475;SDS011;3779;49.216;8.650;2022-08-19T09:36:42;6.03;;;4.97;;
7475;SDS011;3779;49.216;8.650;2022-08-19T09:39:28;6.13;;;5.30;;
7475;SDS011;3779;49.216;8.650;2022-08-19T09:42:16;7.13;;;5.03;;
7475;SDS011;3779;49.216;8.650;2022-08-19T09:45:03;6.90;;;4.32;;
7475;SDS011;3779;49.216;8.650;2022-08-19T09:47:50;5.30;;;4.15;;
7475;SDS011;3779;49.216;8.650;2022-08-19T09:50:37;6.55;;;4.57;;
7475;SDS011;3779;49.216;8.650;2022-08-19T09:53:23;5.65;;;4.68;;
7475;SDS011;3779;49.216;8.650;2022-08-19T09:56:09;5.35;;;4.75;;
7475;SDS011;3779;49.216;8.650;2022-08-19T09:59:00;4.85;;;4.45;;
7475;SDS011;3779;49.216;8.650;2022-08-19T10:01:48;4.80;;;4.40;;
7475;SDS011;3779;49.216;8.650;2022-08-19T10:04:34;5.20;;;4.55;;
7475;SDS011;3779;49.216;8.650;2022-08-19T10:07:39;5.18;;;4.63;;
7475;SDS011;3779;49.216;8.650;2022-08-19T10:10:25;5.18;;;4.68;;
7475;SDS011;3779;49.216;8.650;2022-08-19T10:13:11;6.32;;;4.47;;
7475;SDS011;3779;49.216;8.650;2022-08-19T10:16:08;5.22;;;4.32;;
7475;SDS011;3779;49.216;8.650;2022-08-19T10:18:56;6.50;;;4.63;;
7475;SDS011;3779;49.216;8.650;2022-08-19T10:21:42;5.00;;;4.47;;
7475;SDS011;3779;49.216;8.650;2022-08-19T10:24:27;6.00;;;4.38;;
7475;SDS011;3779;49.216;8.650;2022-08-19T10:27:15;5.20;;;4.30;;
7475;SDS011;3779;49.216;8.650;2022-08-19T10:30:01;4.90;;;4.35;;
7475;SDS011;3779;49.216;8.650;2022-08-19T10:32:47;7.10;;;4.72;;
7475;SDS011;3779;49.216;8.650;2022-08-19T10:35:34;5.38;;;4.32;;
7475;SDS011;3779;49.216;8.650;2022-08-19T10:38:21;4.50;;;4.10;;
7475;SDS011;3779;49.216;8.650;2022-08-19T10:41:11;5.10;;;4.57;;
7475;SDS011;3779;49.216;8.650;2022-08-19T10:44:03;4.72;;;3.80;;
7475;SDS011;3779;49.216;8.650;2022-08-19T10:46:51;5.10;;;4.70;;
7475;SDS011;3779;49.216;8.650;2022-08-19T10:49:37;6.10;;;4.65;;
7475;SDS011;3779;49.216;8.650;2022-08-19T10:52:44;4.57;;;4.20;;
7475;SDS011;3779;49.216;8.650;2022-08-19T10:55:33;5.97;;;5.47;;
7475;SDS011;3779;49.216;8.650;2022-08-19T10:58:38;6.43;;;5.68;;
7475;SDS011;3779;49.216;8.650;2022-08-19T11:01:26;5.85;;;5.32;;
7475;SDS011;3779;49.216;8.650;2022-08-19T11:04:15;5.30;;;4.80;;
7475;SDS011;3779;49.216;8.650;2022-08-19T11:07:03;5.55;;;5.00;;
7475;SDS011;3779;49.216;8.650;2022-08-19T11:09:49;5.53;;;5.03;;
7475;SDS011;3779;49.216;8.650;2022-08-19T11:12:38;5.20;;;4.78;;
7475;SDS011;3779;49.216;8.650;2022-08-19T11:15:25;5.22;;;4.63;;
7475;SDS011;3779;49.216;8.650;2022-08-19T11:18:13;6.00;;;4.32;;
7475;SDS011;3779;49.216;8.650;2022-08-19T11:21:06;4.70;;;4.30;;
7475;SDS011;3779;49.216;8.650;2022-08-19T11:24:13;5.45;;;4.85;;
7475;SDS011;3779;49.216;8.650;2022-08-19T11:27:02;3.80;;;3.40;;
7475;SDS011;3779;49.216;8.650;2022-08-19T11:29:51;5.45;;;4.50;;
7475;SDS011;3779;49.216;8.650;2022-08-19T11:32:37;5.45;;;4.90;;
7475;SDS011;3779;49.216;8.650;2022-08-19T11:35:23;5.45;;;5.05;;
7475;SDS011;3779;49.216;8.650;2022-08-19T11:38:09;6.40;;;5.80;;
7475;SDS011;3779;49.216;8.650;2022-08-19T11:40:57;5.60;;;5.10;;
7475;SDS011;3779;49.216;8.650;2022-08-19T11:43:44;5.80;;;5.20;;
7475;SDS011;3779;49.216;8.650;2022-08-19T11:46:30;5.75;;;5.15;;
7475;SDS011;3779;49.216;8.650;2022-08-19T11:49:17;5.72;;;5.10;;
7475;SDS011;3779;49.216;8.650;2022-08-19T11:52:05;4.93;;;4.53;;
7475;SDS011;3779;49.216;8.650;2022-08-19T11:54:50;5.65;;;5.15;;
7475;SDS011;3779;49.216;8.650;2022-08-19T11:57:36;6.60;;;5.57;;
7475;SDS011;3779;49.216;8.650;2022-08-19T12:00:22;5.45;;;4.95;;
7475;SDS011;3779;49.216;8.650;2022-08-19T12:03:08;6.57;;;5.07;;
7475;SDS011;3779;49.216;8.650;2022-08-19T12:05:54;6.28;;;5.25;;
7475;SDS011;3779;49.216;8.650;2022-08-19T12:08:41;4.00;;;3.67;;
7475;SDS011;3779;49.216;8.650;2022-08-19T12:11:28;3.65;;;3.25;;
7475;SDS011;3779;49.216;8.650;2022-08-19T12:14:14;5.80;;;4.47;;
7475;SDS011;3779;49.216;8.650;2022-08-19T12:16:59;6.43;;;4.75;;
7475;SDS011;3779;49.216;8.650;2022-08-19T12:19:47;19.77;;;5.75;;
7475;SDS011;3779;49.216;8.650;2022-08-19T12:22:33;6.85;;;4.32;;
7475;SDS011;3779;49.216;8.650;2022-08-19T12:25:20;6.15;;;4.50;;
7475;SDS011;3779;49.216;8.650;2022-08-19T12:28:06;8.27;;;5.20;;
7475;SDS011;3779;49.216;8.650;2022-08-19T12:30:51;7.10;;;4.50;;
7475;SDS011;3779;49.216;8.650;2022-08-19T12:33:38;5.20;;;3.90;;
7475;SDS011;3779;49.216;8.650;2022-08-19T12:36:24;4.88;;;3.80;;
7475;SDS011;3779;49.216;8.650;2022-08-19T12:39:10;4.88;;;4.25;;
7475;SDS011;3779;49.216;8.650;2022-08-19T12:41:56;5.07;;;4.05;;
7475;SDS011;3779;49.216;8.650;2022-08-19T12:44:43;4.72;;;3.72;;
7475;SDS011;3779;49.216;8.650;2022-08-19T12:47:29;3.75;;;3.42;;
7475;SDS011;3779;49.216;8.650;2022-08-19T12:50:15;3.70;;;3.22;;
7475;SDS011;3779;49.216;8.650;2022-08-19T12:53:01;4.22;;;3.88;;
7475;SDS011;3779;49.216;8.650;2022-08-19T12:55:47;4.55;;;3.35;;
7475;SDS011;3779;49.216;8.650;2022-08-19T12:58:41;4.00;;;3.70;;
7475;SDS011;3779;49.216;8.650;2022-08-19T13:01:28;1.88;;;1.75;;
7475;SDS011;3779;49.216;8.650;2022-08-19T13:04:18;3.85;;;3.45;;
7475;SDS011;3779;49.216;8.650;2022-08-19T13:07:04;3.88;;;3.50;;
7475;SDS011;3779;49.216;8.650;2022-08-19T13:09:51;4.93;;;4.47;;
7475;SDS011;3779;49.216;8.650;2022-08-19T13:12:38;4.68;;;4.22;;
7475;SDS011;3779;49.216;8.650;2022-08-19T13:15:26;4.50;;;3.03;;
7475;SDS011;3779;49.216;8.650;2022-08-19T13:18:14;2.67;;;2.47;;
7475;SDS011;3779;49.216;8.650;2022-08-19T13:21:05;6.55;;;2.95;;
7475;SDS011;3779;49.216;8.650;2022-08-19T13:23:53;3.72;;;3.42;;
7475;SDS011;3779;49.216;8.650;2022-08-19T13:26:40;3.13;;;2.83;;
7475;SDS011;3779;49.216;8.650;2022-08-19T13:29:27;4.93;;;3.60;;
7475;SDS011;3779;49.216;8.650;2022-08-19T13:32:32;4.50;;;3.97;;
7475;SDS011;3779;49.216;8.650;2022-08-19T13:35:39;5.80;;;3.85;;
7475;SDS011;3779;49.216;8.650;2022-08-19T13:38:40;4.50;;;4.07;;
7475;SDS011;3779;49.216;8.650;2022-08-19T13:41:27;4.00;;;3.42;;
7475;SDS011;3779;49.216;8.650;2022-08-19T13:44:15;4.75;;;3.67;;
7475;SDS011;3779;49.216;8.650;2022-08-19T13:47:04;4.07;;;3.17;;
7475;SDS011;3779;49.216;8.650;2022-08-19T13:49:52;4.45;;;4.05;;
7475;SDS011;3779;49.216;8.650;2022-08-19T13:52:39;4.53;;;3.80;;
7475;SDS011;3779;49.216;8.650;2022-08-19T13:55:26;4.25;;;3.38;;
7475;SDS011;3779;49.216;8.650;2022-08-19T13:58:13;3.40;;;3.10;;
7475;SDS011;3779;49.216;8.650;2022-08-19T14:01:01;3.38;;;2.88;;
7475;SDS011;3779;49.216;8.650;2022-08-19T14:03:48;4.63;;;3.55;;
7475;SDS011;3779;49.216;8.650;2022-08-19T14:06:36;4.00;;;3.45;;
7475;SDS011;3779;49.216;8.650;2022-08-19T14:09:22;3.70;;;3.25;;
7475;SDS011;3779;49.216;8.650;2022-08-19T14:12:09;4.82;;;3.53;;
7475;SDS011;3779;49.216;8.650;2022-08-19T14:14:56;3.47;;;3.17;;
7475;SDS011;3779;49.216;8.650;2022-08-19T14:17:43;3.85;;;3.40;;
7475;SDS011;3779;49.216;8.650;2022-08-19T14:20:35;3.60;;;3.30;;
7475;SDS011;3779;49.216;8.650;2022-08-19T14:23:22;2.60;;;2.40;;
7475;SDS011;3779;49.216;8.650;2022-08-19T14:26:12;3.50;;;3.20;;
7475;SDS011;3779;49.216;8.650;2022-08-19T14:29:01;5.78;;;3.47;;
7475;SDS011;3779;49.216;8.650;2022-08-19T14:31:48;3.65;;;3.35;;
7475;SDS011;3779;49.216;8.650;2022-08-19T14:34:36;4.15;;;3.63;;
7475;SDS011;3779;49.216;8.650;2022-08-19T14:37:23;4.22;;;3.42;;
7475;SDS011;3779;49.216;8.650;2022-08-19T14:40:10;3.40;;;3.10;;
7475;SDS011;3779;49.216;8.650;2022-08-19T14:42:59;4.72;;;3.08;;
7475;SDS011;3779;49.216;8.650;2022-08-19T14:45:50;3.55;;;3.15;;
7475;SDS011;3779;49.216;8.650;2022-08-19T14:48:37;2.50;;;2.30;;
7475;SDS011;3779;49.216;8.650;2022-08-19T14:51:24;2.72;;;2.53;;
7475;SDS011;3779;49.216;8.650;2022-08-19T14:54:12;2.65;;;2.45;;
7475;SDS011;3779;49.216;8.650;2022-08-19T14:56:59;4.65;;;2.60;;
7475;SDS011;3779;49.216;8.650;2022-08-19T14:59:45;3.05;;;2.85;;
7475;SDS011;3779;49.216;8.650;2022-08-19T15:02:32;3.63;;;3.33;;
7475;SDS011;3779;49.216;8.650;2022-08-19T15:05:19;3.38;;;3.17;;
7475;SDS011;3779;49.216;8.650;2022-08-19T15:08:06;2.95;;;2.53;;
7475;SDS011;3779;49.216;8.650;2022-08-19T15:10:56;2.30;;;2.10;;
7475;SDS011;3779;49.216;8.650;2022-08-19T15:13:43;3.10;;;2.90;;
7475;SDS011;3779;49.216;8.650;2022-08-19T15:16:32;3.50;;;3.15;;
7475;SDS011;3779;49.216;8.650;2022-08-19T15:19:19;4.30;;;3.38;;
7475;SDS011;3779;49.216;8.650;2022-08-19T15:22:06;2.45;;;2.25;;
7475;SDS011;3779;49.216;8.650;2022-08-19T15:24:55;3.53;;;3.25;;
7475;SDS011;3779;49.216;8.650;2022-08-19T15:27:42;3.00;;;2.80;;
7475;SDS011;3779;49.216;8.650;2022-08-19T15:30:28;2.90;;;2.70;;
7475;SDS011;3779;49.216;8.650;2022-08-19T15:33:14;4.10;;;3.22;;
7475;SDS011;3779;49.216;8.650;2022-08-19T15:36:03;4.68;;;2.83;;
7475;SDS011;3779;49.216;8.650;2022-08-19T15:38:50;2.72;;;2.53;;
7475;SDS011;3779;49.216;8.650;2022-08-19T15:41:37;3.22;;;2.97;;
7475;SDS011;3779;49.216;8.650;2022-08-19T15:44:25;2.80;;;2.60;;
7475;SDS011;3779;49.216;8.650;2022-08-19T15:47:12;2.90;;;2.67;;
7475;SDS011;3779;49.216;8.650;2022-08-19T15:49:58;3.03;;;2.78;;
7475;SDS011;3779;49.216;8.650;2022-08-19T15:52:48;3.55;;;3.25;;
7475;SDS011;3779;49.216;8.650;2022-08-19T15:55:35;3.38;;;3.08;;
7475;SDS011;3779;49.216;8.650;2022-08-19T15:58:26;3.78;;;3.10;;
7475;SDS011;3779;49.216;8.650;2022-08-19T16:01:32;3.35;;;3.05;;
7475;SDS011;3779;49.216;8.650;2022-08-19T16:04:18;2.90;;;2.70;;
7475;SDS011;3779;49.216;8.650;2022-08-19T16:07:23;4.10;;;2.83;;
7475;SDS011;3779;49.216;8.650;2022-08-19T16:10:09;3.22;;;2.97;;
7475;SDS011;3779;49.216;8.650;2022-08-19T16:12:56;3.13;;;2.90;;
7475;SDS011;3779;49.216;8.650;2022-08-19T16:15:42;3.28;;;2.80;;
7475;SDS011;3779;49.216;8.650;2022-08-19T16:18:29;3.55;;;3.13;;
7475;SDS011;3779;49.216;8.650;2022-08-19T16:21:15;1.90;;;1.80;;
7475;SDS011;3779;49.216;8.650;2022-08-19T16:24:05;3.25;;;2.95;;
7475;SDS011;3779;49.216;8.650;2022-08-19T16:26:52;3.20;;;2.95;;
7475;SDS011;3779;49.216;8.650;2022-08-19T16:29:39;3.60;;;3.30;;
7475;SDS011;3779;49.216;8.650;2022-08-19T16:32:24;4.88;;;3.45;;
7475;SDS011;3779;49.216;8.650;2022-08-19T16:35:10;5.10;;;3.17;;
7475;SDS011;3779;49.216;8.650;2022-08-19T16:37:57;3.45;;;3.15;;
7475;SDS011;3779;49.216;8.650;2022-08-19T16:40:42;3.10;;;2.80;;
7475;SDS011;3779;49.216;8.650;2022-08-19T16:43:28;3.40;;;3.10;;
7475;SDS011;3779;49.216;8.650;2022-08-19T16:46:15;3.97;;;3.15;;
7475;SDS011;3779;49.216;8.650;2022-08-19T16:49:02;3.17;;;2.78;;
7475;SDS011;3779;49.216;8.650;2022-08-19T16:51:49;2.80;;;2.60;;
7475;SDS011;3779;49.216;8.650;2022-08-19T16:54:36;3.30;;;3.00;;
7475;SDS011;3779;49.216;8.650;2022-08-19T16:57:22;3.60;;;3.30;;
7475;SDS011;3779;49.216;8.650;2022-08-19T17:00:08;3.65;;;3.10;;
7475;SDS011;3779;49.216;8.650;2022-08-19T17:03:02;3.30;;;3.00;;
7475;SDS011;3779;49.216;8.650;2022-08-19T17:05:55;3.05;;;2.75;;
7475;SDS011;3779;49.216;8.650;2022-08-19T17:08:44;3.35;;;2.85;;
7475;SDS011;3779;49.216;8.650;2022-08-19T17:11:34;3.63;;;3.00;;
7475;SDS011;3779;49.216;8.650;2022-08-19T17:14:21;3.38;;;3.00;;
7475;SDS011;3779;49.216;8.650;2022-08-19T17:17:07;4.90;;;3.10;;
7475;SDS011;3779;49.216;8.650;2022-08-19T17:19:57;5.20;;;3.95;;
7475;SDS011;3779;49.216;8.650;2022-08-19T17:22:44;3.35;;;3.15;;
7475;SDS011;3779;49.216;8.650;2022-08-19T17:25:31;3.58;;;3.20;;